Time;durP1;ratioP1;P1;durP2;ratioP2;P2;SDS_P1;SDS_P2;PMS_P1;PMS_P2;Temp;Humidity;BMP_temperature;BMP_pressure;BME280_temperature;BME280_humidity;BME280_pressure;Samples;Min_cycle;Max_cycle;Signal;HPM_P1;HPM_P2
2023/10/26 00:09:39;;;;;;;30.33;16.33;;;10.10;1.00;;;;;;20177867;29;20055;-43
2023/10/26 00:19:40;;;;;;;30.73;16.50;;;10.10;1.00;;;;;;20184795;29;20052;-44
2023/10/26 00:29:40;;;;;;;32.83;17.33;;;10.10;1.00;;;;;;20183950;29;20414;-44
2023/10/26 00:39:41;;;;;;;42.75;19.58;;;10.10;1.00;;;;;;20182651;29;20096;-44
2023/10/26 00:49:42;;;;;;;36.55;18.58;;;10.10;1.00;;;;;;20180874;29;20139;-44
2023/10/26 00:59:45;;;;;;;40.95;19.38;;;10.10;1.00;;;;;;20171416;29;20060;-43
2023/10/26 01:09:47;;;;;;;46.53;21.30;;;10.10;1.00;;;;;;20154289;29;20044;-43
2023/10/26 01:19:48;;;;;;;48.67;22.65;;;10.10;1.00;;;;;;20165631;29;20055;-43
2023/10/26 01:29:48;;;;;;;48.17;23.77;;;10.10;1.00;;;;;;20174424;29;20036;-44
2023/10/26 01:39:49;;;;;;;45.53;23.58;;;10.20;1.00;;;;;;20170681;29;20453;-43
2023/10/26 01:49:49;;;;;;;51.47;23.98;;;10.20;1.00;;;;;;20170102;29;20057;-43
2023/10/26 01:59:50;;;;;;;55.75;23.77;;;10.10;1.00;;;;;;20173380;29;20053;-43
2023/10/26 02:09:51;;;;;;;39.13;20.13;;;10.20;1.00;;;;;;20166135;29;20080;-43
2023/10/26 02:19:52;;;;;;;52.95;23.45;;;10.10;1.00;;;;;;20163095;29;20425;-44
2023/10/26 02:29:52;;;;;;;45.78;22.13;;;10.10;1.00;;;;;;20161415;29;20155;-43
2023/10/26 02:39:53;;;;;;;43.20;20.25;;;10.00;1.00;;;;;;20164675;29;20128;-43
2023/10/26 02:49:53;;;;;;;37.38;17.02;;;9.70;1.00;;;;;;20157342;29;20053;-43
2023/10/26 02:59:54;;;;;;;32.95;16.40;;;9.50;1.00;;;;;;20157109;29;20057;-44
2023/10/26 03:09:54;;;;;;;38.93;18.20;;;9.20;1.00;;;;;;20188617;29;20049;-43
2023/10/26 03:19:55;;;;;;;40.33;20.00;;;9.10;1.00;;;;;;20190857;29;21023;-43
2023/10/26 03:29:55;;;;;;;39.65;18.50;;;9.00;1.00;;;;;;20190280;29;20036;-44
2023/10/26 03:39:56;;;;;;;37.63;19.40;;;8.90;1.00;;;;;;20190776;29;20629;-43
2023/10/26 03:49:57;;;;;;;43.73;20.17;;;8.80;1.00;;;;;;20171698;29;20444;-43
2023/10/26 03:59:57;;;;;;;38.10;17.38;;;8.70;1.00;;;;;;20181696;29;20072;-44
2023/10/26 04:09:58;;;;;;;40.10;18.70;;;8.70;1.00;;;;;;20190803;29;20128;-43
2023/10/26 04:19:59;;;;;;;42.95;19.33;;;8.50;1.00;;;;;;20183990;29;20469;-43
2023/10/26 04:29:59;;;;;;;39.95;18.05;;;8.50;1.00;;;;;;20193214;29;20052;-43
2023/10/26 04:40:00;;;;;;;37.28;18.45;;;8.50;1.00;;;;;;20183153;29;20148;-44
2023/10/26 04:50:01;;;;;;;28.13;15.45;;;8.30;1.00;;;;;;20177087;29;20577;-43
2023/10/26 05:00:02;;;;;;;29.67;15.98;;;8.60;1.00;;;;;;20182918;29;20560;-43
2023/10/26 05:10:05;;;;;;;29.58;15.68;;;8.70;1.00;;;;;;20184347;29;20073;-44
2023/10/26 05:20:09;;;;;;;28.63;15.95;;;8.80;1.00;;;;;;20179065;29;20083;-43
2023/10/26 05:30:09;;;;;;;26.95;15.85;;;8.80;1.00;;;;;;20172397;29;20197;-43
2023/10/26 05:40:11;;;;;;;29.77;16.17;;;8.80;1.00;;;;;;20179379;29;20092;-43
2023/10/26 05:50:11;;;;;;;32.85;17.73;;;8.80;1.00;;;;;;20184808;29;20205;-43
2023/10/26 06:00:12;;;;;;;42.78;20.67;;;8.90;1.00;;;;;;20185035;29;20044;-42
2023/10/26 06:10:13;;;;;;;44.92;22.40;;;8.90;1.00;;;;;;20175590;29;20052;-43
2023/10/26 06:20:14;;;;;;;45.77;23.93;;;9.10;1.00;;;;;;20178671;29;20056;-43
2023/10/26 06:30:15;;;;;;;49.28;25.75;;;9.20;1.00;;;;;;20182311;29;20032;-43
2023/10/26 06:40:16;;;;;;;46.70;26.05;;;9.00;1.00;;;;;;20193629;29;20125;-42
2023/10/26 06:50:17;;;;;;;38.73;23.37;;;8.80;1.00;;;;;;20153462;29;1186079;-43
2023/10/26 07:00:17;;;;;;;51.20;27.83;;;8.70;99.90;;;;;;20204884;29;20468;-42
2023/10/26 07:10:21;;;;;;;51.22;27.45;;;8.70;99.90;;;;;;20202434;29;20473;-43
2023/10/26 07:20:21;;;;;;;52.25;27.23;;;8.60;99.90;;;;;;20191132;29;20044;-43
2023/10/26 07:30:22;;;;;;;51.67;25.48;;;8.80;99.90;;;;;;20213826;29;20560;-42
2023/10/26 07:40:23;;;;;;;38.65;21.75;;;8.80;99.90;;;;;;20218528;29;20056;-42
2023/10/26 07:50:24;;;;;;;40.58;22.38;;;8.80;99.90;;;;;;20207510;29;20509;-43
2023/10/26 08:00:24;;;;;;;44.10;22.77;;;8.80;99.90;;;;;;20213939;29;20052;-42
2023/10/26 08:10:25;;;;;;;40.95;20.98;;;8.90;99.90;;;;;;20200570;29;20472;-42
2023/10/26 08:20:25;;;;;;;35.25;19.17;;;9.00;99.90;;;;;;20206980;29;20075;-42
2023/10/26 08:30:26;;;;;;;35.35;18.27;;;9.10;99.90;;;;;;20204892;29;20052;-43
2023/10/26 08:40:26;;;;;;;30.30;15.48;;;9.20;99.90;;;;;;20208204;29;20057;-42
2023/10/26 08:50:27;;;;;;;30.88;16.05;;;9.20;99.90;;;;;;20206475;29;20680;-43
2023/10/26 09:00:30;;;;;;;29.17;16.60;;;9.30;99.90;;;;;;20214197;29;20534;-42
2023/10/26 09:10:32;;;;;;;30.15;16.02;;;9.30;99.90;;;;;;20213819;29;20050;-42
2023/10/26 09:20:34;;;;;;;30.83;16.33;;;9.40;99.90;;;;;;20214484;29;20548;-43
2023/10/26 09:30:36;;;;;;;32.30;16.90;;;9.60;99.90;;;;;;20208787;29;20263;-42
2023/10/26 09:40:36;;;;;;;41.20;17.77;;;9.70;99.90;;;;;;20217044;29;20068;-42
2023/10/26 09:50:40;;;;;;;34.47;17.58;;;9.80;99.90;;;;;;20190015;29;20060;-43
2023/10/26 10:00:40;;;;;;;36.00;18.02;;;10.00;99.90;;;;;;20214566;29;20041;-42
2023/10/26 10:11:17;;;;;;;35.60;16.85;;;10.00;99.90;;;;;;20206711;29;20091;-41
2023/10/26 10:21:34;;;;;;;32.08;16.98;;;10.00;99.90;;;;;;20220126;29;20075;-42
2023/10/26 10:31:38;;;;;;;36.37;18.20;;;10.00;99.90;;;;;;20201924;29;20539;-43
2023/10/26 10:41:39;;;;;;;34.53;17.25;;;10.30;99.90;;;;;;20198770;29;20083;-42
2023/10/26 10:51:42;;;;;;;36.65;18.85;;;10.30;99.90;;;;;;20196586;29;20056;-42
2023/10/26 11:01:43;;;;;;;36.83;18.40;;;10.30;99.90;;;;;;20196101;29;20140;-42
2023/10/26 11:11:44;;;;;;;33.95;19.10;;;10.50;99.90;;;;;;20195089;29;20140;-43
2023/10/26 11:21:45;;;;;;;31.60;18.45;;;11.10;99.90;;;;;;20201387;29;20401;-42
2023/10/26 11:31:46;;;;;;;31.77;18.80;;;11.00;99.90;;;;;;20205915;29;20599;-42
2023/10/26 11:41:56;;;;;;;28.87;17.50;;;11.80;99.90;;;;;;20211548;29;20052;-41
2023/10/26 11:51:57;;;;;;;20.20;13.85;;;11.90;99.90;;;;;;20208526;29;20088;-42
2023/10/26 12:01:57;;;;;;;18.20;11.95;;;11.90;99.90;;;;;;20202934;29;20478;-42
2023/10/26 12:11:58;;;;;;;22.98;13.10;;;11.80;99.90;;;;;;20205538;29;20037;-42
2023/10/26 12:21:58;;;;;;;20.48;12.07;;;11.50;99.90;;;;;;20218715;29;20045;-42
2023/10/26 12:31:59;;;;;;;18.85;11.60;;;11.30;99.90;;;;;;20212029;29;20045;-42
2023/10/26 12:42:00;;;;;;;17.98;11.15;;;11.10;99.90;;;;;;20210791;29;20044;-42
2023/10/26 12:52:01;;;;;;;15.63;10.77;;;11.00;99.90;;;;;;20194566;29;20033;-42
2023/10/26 13:02:01;;;;;;;19.90;12.18;;;10.80;99.90;;;;;;20206399;29;20076;-41
2023/10/26 13:12:02;;;;;;;19.70;11.65;;;10.90;99.90;;;;;;20214475;29;20063;-42
2023/10/26 13:22:03;;;;;;;21.35;13.48;;;10.80;99.90;;;;;;20203585;29;20460;-42
2023/10/26 13:32:03;;;;;;;21.40;13.33;;;10.90;99.90;;;;;;20186004;29;20052;-42
2023/10/26 13:42:04;;;;;;;21.23;13.48;;;10.90;99.90;;;;;;20203416;29;20465;-42
2023/10/26 13:52:05;;;;;;;20.37;13.00;;;11.00;99.90;;;;;;20207770;29;20081;-42
2023/10/26 14:02:06;;;;;;;21.40;13.70;;;11.00;99.90;;;;;;20205145;29;21262;-42
2023/10/26 14:12:07;;;;;;;21.80;14.20;;;10.90;99.90;;;;;;20200912;29;20045;-41
2023/10/26 14:22:07;;;;;;;26.05;15.10;;;11.20;99.90;;;;;;20198084;29;20060;-41
2023/10/26 14:32:08;;;;;;;24.10;15.23;;;11.10;99.90;;;;;;20210731;29;20053;-42
2023/10/26 14:42:10;;;;;;;28.90;16.15;;;11.20;99.90;;;;;;20229023;29;20491;-43
2023/10/26 14:52:11;;;;;;;23.73;15.43;;;11.40;99.90;;;;;;20226018;29;20037;-43
2023/10/26 15:02:11;;;;;;;25.70;15.80;;;11.60;99.90;;;;;;20234947;29;20611;-43
2023/10/26 15:12:13;;;;;;;23.05;14.90;;;11.40;99.90;;;;;;20230426;29;20041;-42
2023/10/26 15:22:13;;;;;;;24.00;15.35;;;11.30;99.90;;;;;;20229345;29;20072;-43
2023/10/26 15:32:17;;;;;;;25.13;16.17;;;11.20;99.90;;;;;;20224690;29;20549;-42
2023/10/26 15:42:18;;;;;;;25.77;16.98;;;11.20;99.90;;;;;;20238912;29;20044;-43
2023/10/26 15:52:18;;;;;;;25.55;15.60;;;11.20;99.90;;;;;;20210249;29;20083;-42
2023/10/26 16:02:19;;;;;;;26.73;15.93;;;11.10;99.90;;;;;;20189049;29;20037;-42
2023/10/26 16:12:22;;;;;;;27.58;16.10;;;11.10;99.90;;;;;;20211073;29;20929;-42
2023/10/26 16:22:22;;;;;;;22.17;14.32;;;11.10;99.90;;;;;;20205453;29;20041;-43
2023/10/26 16:32:26;;;;;;;25.67;16.42;;;11.10;99.90;;;;;;20204862;29;20070;-42
2023/10/26 16:42:27;;;;;;;24.08;15.52;;;11.00;99.90;;;;;;20227690;29;20449;-42
2023/10/26 16:52:28;;;;;;;25.23;15.82;;;11.00;99.90;;;;;;20216654;29;20123;-42
2023/10/26 17:02:28;;;;;;;24.30;15.25;;;10.90;99.90;;;;;;20200453;29;20044;-42
2023/10/26 17:12:29;;;;;;;30.02;18.45;;;10.80;99.90;;;;;;20204186;29;20060;-43
2023/10/26 17:22:30;;;;;;;22.77;14.73;;;10.80;99.90;;;;;;20197267;29;20037;-43
2023/10/26 17:32:34;;;;;;;26.58;15.50;;;10.90;99.90;;;;;;20171315;29;20523;-43
2023/10/26 17:42:37;;;;;;;34.72;20.05;;;10.90;99.90;;;;;;20193347;29;20049;-43
2023/10/26 17:52:38;;;;;;;24.90;15.80;;;10.90;99.90;;;;;;20183670;29;20072;-43
2023/10/26 18:02:38;;;;;;;42.00;23.95;;;10.80;99.90;;;;;;20193531;29;20139;-43
2023/10/26 18:12:39;;;;;;;34.33;21.10;;;10.90;99.90;;;;;;20184212;29;20043;-43
2023/10/26 18:22:39;;;;;;;28.10;18.08;;;10.80;99.90;;;;;;20202413;29;20044;-42
2023/10/26 18:32:40;;;;;;;27.92;17.17;;;10.90;99.90;;;;;;20226780;29;20048;-43
2023/10/26 18:42:40;;;;;;;26.10;15.88;;;10.90;99.90;;;;;;20236880;29;20139;-42
2023/10/26 18:52:41;;;;;;;30.05;18.17;;;10.80;99.90;;;;;;20237803;29;20048;-43
2023/10/26 19:02:41;;;;;;;36.63;21.05;;;10.80;99.90;;;;;;20238965;29;20127;-43
2023/10/26 19:12:42;;;;;;;27.77;16.95;;;10.90;99.90;;;;;;20238417;29;20139;-43
2023/10/26 19:22:49;;;;;;;34.08;20.60;;;10.80;99.90;;;;;;20230533;29;20053;-43
2023/10/26 19:32:53;;;;;;;36.63;21.50;;;10.80;99.90;;;;;;20235936;29;20132;-43
2023/10/26 19:42:54;;;;;;;33.03;19.80;;;10.80;99.90;;;;;;20237679;29;20036;-43
2023/10/26 19:52:54;;;;;;;36.67;20.38;;;10.80;99.90;;;;;;20236067;29;20056;-43
2023/10/26 20:02:55;;;;;;;32.67;20.50;;;10.90;99.90;;;;;;20212899;29;20067;-43
2023/10/26 20:12:55;;;;;;;34.25;20.23;;;10.80;99.90;;;;;;20207217;29;20048;-43
2023/10/26 20:22:56;;;;;;;40.38;22.52;;;10.70;99.90;;;;;;20204421;29;20516;-43
2023/10/26 20:32:57;;;;;;;38.03;21.88;;;10.70;99.90;;;;;;20212345;29;20495;-43
2023/10/26 20:42:58;;;;;;;37.40;21.90;;;10.70;99.90;;;;;;20211153;29;20045;-43
2023/10/26 20:52:58;;;;;;;41.17;23.15;;;10.80;99.90;;;;;;20211229;29;20124;-43
2023/10/26 21:02:59;;;;;;;43.30;23.70;;;10.70;99.90;;;;;;20208323;29;20150;-43
2023/10/26 21:12:59;;;;;;;46.97;23.98;;;10.80;99.90;;;;;;20209862;29;20072;-43
2023/10/26 21:23:00;;;;;;;43.05;23.55;;;10.80;99.90;;;;;;20224481;29;20045;-43
2023/10/26 21:33:00;;;;;;;44.47;24.23;;;10.90;99.90;;;;;;20215409;29;20083;-43
2023/10/26 21:43:01;;;;;;;46.35;24.40;;;10.80;99.90;;;;;;20211569;29;20032;-41
2023/10/26 21:53:01;;;;;;;49.25;25.90;;;10.90;99.90;;;;;;20204445;29;20408;-42
2023/10/26 22:03:03;;;;;;;48.30;24.80;;;10.90;99.90;;;;;;20191479;29;20097;-43
2023/10/26 22:13:03;;;;;;;45.10;24.60;;;10.90;99.90;;;;;;20182539;29;20061;-43
2023/10/26 22:23:04;;;;;;;50.72;24.95;;;10.80;99.90;;;;;;20178586;29;20984;-43
2023/10/26 22:33:05;;;;;;;50.33;27.52;;;10.90;99.90;;;;;;20198064;29;20049;-43
2023/10/26 22:43:06;;;;;;;51.40;26.38;;;10.90;99.90;;;;;;20187658;29;20041;-43
2023/10/26 22:53:07;;;;;;;50.63;26.65;;;10.80;99.90;;;;;;20185918;29;20056;-43
2023/10/26 23:03:07;;;;;;;55.45;25.98;;;10.80;99.90;;;;;;20180036;29;20040;-43
2023/10/26 23:13:08;;;;;;;53.83;26.13;;;10.80;99.90;;;;;;20177233;29;20059;-43
2023/10/26 23:23:08;;;;;;;53.38;27.77;;;10.90;99.90;;;;;;20175190;29;20139;-43
2023/10/26 23:33:09;;;;;;;47.33;24.55;;;10.90;99.90;;;;;;20184179;29;20210;-43
2023/10/26 23:43:09;;;;;;;48.92;25.13;;;10.90;99.90;;;;;;20183830;29;20055;-43
2023/10/26 23:53:10;;;;;;;49.28;25.85;;;10.90;99.90;;;;;;20185162;29;20045;-43
